createdAt,value
2019-04-03T00:01:34.413Z,165803.56
2019-04-03T00:04:04.671Z,165788.86
2019-04-03T00:06:35.039Z,165767.47
2019-04-03T00:09:06.584Z,165752.83
2019-04-03T00:11:35.806Z,165730.09
2019-04-03T00:14:04.067Z,165730.09
2019-04-03T00:16:32.368Z,165722.09
2019-04-03T00:19:00.525Z,165719.41
2019-04-03T00:21:28.834Z,165727.45
2019-04-03T00:23:57.156Z,165750.13
2019-04-03T00:26:25.298Z,165730.09
2019-04-03T00:28:53.442Z,165724.75
2019-04-03T00:31:23.288Z,165735.44
2019-04-03T00:33:53.422Z,165704.72
2019-04-03T00:36:23.317Z,165684.73
2019-04-03T00:38:52.584Z,165699.42
2019-04-03T00:41:24.132Z,165651.36
2019-04-03T00:43:54.049Z,165699.42
2019-04-03T00:46:22.806Z,165656.66
2019-04-03T00:48:55.342Z,165676.69
2019-04-03T00:51:22.688Z,165622.00
2019-04-03T00:53:51.046Z,165607.31
2019-04-03T00:56:19.338Z,165612.66
2019-04-03T00:58:47.718Z,165666.05
2019-04-03T01:01:15.976Z,165620.64
2019-04-03T01:03:44.161Z,165583.28
2019-04-03T01:06:13.953Z,165612.66
2019-04-03T01:08:42.136Z,165581.94
2019-04-03T01:11:10.275Z,165591.27
2019-04-03T01:13:38.468Z,165597.97
2019-04-03T01:16:06.619Z,165591.27
2019-04-03T01:18:35.429Z,165613.94
2019-04-03T01:21:06.260Z,165607.31
2019-04-03T01:23:37.201Z,165625.98
2019-04-03T01:26:04.304Z,165639.31
2019-04-03T01:28:32.462Z,165664.70
2019-04-03T01:31:00.616Z,165648.66
2019-04-03T01:33:28.845Z,165627.33
2019-04-03T01:35:56.993Z,165622.00
2019-04-03T01:38:25.166Z,165603.31
2019-04-03T01:40:53.317Z,165623.28
2019-04-03T01:43:23.132Z,165636.67
2019-04-03T01:45:51.664Z,165609.95
2019-04-03T01:48:19.815Z,165604.61
2019-04-03T01:50:47.988Z,165604.61
2019-04-03T01:53:16.141Z,165622.00
2019-04-03T01:55:44.571Z,165650.00
2019-04-03T01:58:12.799Z,165633.97
2019-04-03T02:00:41.641Z,165684.73
2019-04-03T02:03:10.301Z,165687.38
2019-04-03T02:05:39.402Z,165670.05
2019-04-03T02:08:07.619Z,165650.00
2019-04-03T02:10:36.064Z,165619.30
2019-04-03T02:13:04.232Z,165572.59
2019-04-03T02:15:32.406Z,165564.59
2019-04-03T02:18:00.546Z,165553.91
2019-04-03T02:20:28.735Z,165543.22
2019-04-03T02:22:59.646Z,165545.92
2019-04-03T02:25:27.771Z,165533.87
2019-04-03T02:27:55.962Z,165541.88
2019-04-03T02:30:24.111Z,165583.28
2019-04-03T02:32:55.211Z,165529.89
2019-04-03T02:35:22.510Z,165552.56
2019-04-03T02:37:50.962Z,165508.52
2019-04-03T02:40:19.342Z,165493.84
2019-04-03T02:42:47.528Z,165503.17
2019-04-03T02:45:15.675Z,165516.56
2019-04-03T02:47:43.911Z,165476.50
2019-04-03T02:50:15.647Z,165524.55
2019-04-03T02:52:43.991Z,165508.52
2019-04-03T02:55:12.415Z,165511.22
2019-04-03T02:57:40.674Z,165471.17
2019-04-03T03:00:10.103Z,165461.83
2019-04-03T03:02:38.248Z,165457.84
2019-04-03T03:05:06.433Z,165429.83
2019-04-03T03:07:36.416Z,165404.47
2019-04-03T03:10:05.989Z,165391.14
2019-04-03T03:12:36.362Z,165400.47
2019-04-03T03:15:06.074Z,165381.80
2019-04-03T03:17:36.300Z,165375.11
2019-04-03T03:20:07.684Z,165369.77
2019-04-03T03:22:39.052Z,165355.09
2019-04-03T03:25:08.671Z,165360.44
2019-04-03T03:27:40.747Z,165348.45
2019-04-03T03:30:30.353Z,165372.47
2019-04-03T03:32:38.743Z,165376.45
2019-04-03T03:35:14.485Z,165369.77
2019-04-03T03:37:38.658Z,165372.47
2019-04-03T03:40:08.091Z,165347.11
2019-04-03T03:42:36.411Z,165293.69
2019-04-03T03:45:05.786Z,165321.70
2019-04-03T03:47:37.042Z,165349.75
2019-04-03T03:50:07.206Z,165288.36
2019-04-03T03:52:38.329Z,165265.70
2019-04-03T03:55:08.478Z,165241.70
2019-04-03T03:57:40.162Z,165253.67
2019-04-03T04:00:09.324Z,165260.36
2019-04-03T04:02:40.917Z,165247.03
2019-04-03T04:05:10.695Z,165212.36
2019-04-03T04:07:38.782Z,165201.67
2019-04-03T04:10:07.396Z,165191.00
2019-04-03T04:12:39.754Z,165189.70
2019-04-03T04:15:08.780Z,165233.66
2019-04-03T04:17:37.214Z,165180.33
2019-04-03T04:20:06.320Z,165209.66
2019-04-03T04:22:34.957Z,165220.34
2019-04-03T04:25:05.289Z,165251.03
2019-04-03T04:27:37.358Z,165213.70
2019-04-03T04:30:05.200Z,165225.69
2019-04-03T04:32:33.411Z,165243.00
2019-04-03T04:35:01.554Z,165244.34
2019-04-03T04:37:30.096Z,165249.69
2019-04-03T04:39:59.732Z,165235.00
2019-04-03T04:42:28.493Z,165247.03
2019-04-03T04:44:56.816Z,165265.70
2019-04-03T04:47:25.694Z,165228.38
2019-04-03T04:49:54.342Z,165212.36
2019-04-03T04:52:22.688Z,165231.02
2019-04-03T04:54:51.274Z,165252.37
2019-04-03T04:57:19.586Z,165247.03
2019-04-03T04:59:47.795Z,165247.03
2019-04-03T05:02:15.961Z,165235.00
2019-04-03T05:04:44.443Z,165253.67
2019-04-03T05:07:13.030Z,165257.66
2019-04-03T05:09:42.272Z,165245.69
2019-04-03T05:12:10.976Z,165261.72
2019-04-03T05:14:41.176Z,165321.70
2019-04-03T05:17:09.799Z,165313.72
2019-04-03T05:19:38.031Z,165332.38
2019-04-03T05:22:06.488Z,165328.39
2019-04-03T05:24:34.625Z,165332.38
2019-04-03T05:27:03.633Z,165341.72
2019-04-03T05:29:34.207Z,165312.36
2019-04-03T05:32:02.332Z,165288.36
2019-04-03T05:34:30.533Z,165277.67
2019-04-03T05:36:58.684Z,165337.72
2019-04-03T05:39:26.866Z,165304.38
2019-04-03T05:41:55.235Z,165263.00
2019-04-03T05:44:24.104Z,165307.02
2019-04-03T05:46:52.621Z,165271.05
2019-04-03T05:49:20.765Z,165287.00
2019-04-03T05:51:49.196Z,165260.36
2019-04-03T05:54:17.525Z,165248.33
2019-04-03T05:56:45.793Z,165229.67
2019-04-03T05:59:14.055Z,165265.70
2019-04-03T06:01:46.102Z,165268.34
2019-04-03T06:04:12.731Z,165313.72
2019-04-03T06:06:40.975Z,165345.75
2019-04-03T06:09:09.327Z,165377.75
2019-04-03T06:11:39.866Z,165429.83
2019-04-03T06:14:08.768Z,165455.14
2019-04-03T06:16:37.576Z,165421.78
2019-04-03T06:19:07.189Z,165456.48
2019-04-03T06:21:35.600Z,165551.22
2019-04-03T06:24:04.043Z,165516.56
2019-04-03T06:26:32.301Z,165453.84
2019-04-03T06:29:00.728Z,165511.22
2019-04-03T06:31:29.077Z,165469.81
2019-04-03T06:33:57.291Z,165459.19
2019-04-03T06:36:26.567Z,165650.00
2019-04-03T06:38:56.063Z,165633.97
2019-04-03T06:41:24.987Z,165596.63
2019-04-03T06:43:54.494Z,165637.97
2019-04-03T06:46:23.145Z,165711.41
2019-04-03T06:48:51.532Z,165752.83
2019-04-03T06:51:19.902Z,165766.17
2019-04-03T06:53:48.466Z,165756.83
2019-04-03T06:56:16.724Z,165812.91
2019-04-03T06:58:45.184Z,165768.83
2019-04-03T07:01:14.182Z,165795.56
2019-04-03T07:03:42.445Z,165779.52
2019-04-03T07:06:11.513Z,165771.53
2019-04-03T07:08:41.173Z,165846.34
2019-04-03T07:11:22.370Z,165871.72
2019-04-03T07:13:40.508Z,165911.81
2019-04-03T07:16:09.293Z,165942.50
2019-04-03T07:18:37.640Z,165934.50
2019-04-03T07:21:05.798Z,165995.94
2019-04-03T07:23:34.366Z,166054.75
2019-04-03T07:26:02.934Z,166044.05
2019-04-03T07:28:32.701Z,166038.70
2019-04-03T07:31:01.001Z,166073.45
2019-04-03T07:33:29.468Z,166128.27
2019-04-03T07:35:57.925Z,166085.45
2019-04-03T07:38:26.232Z,166074.81
2019-04-03T07:40:54.415Z,166172.33
2019-04-03T07:43:22.661Z,166203.09
2019-04-03T07:45:50.958Z,166216.45
2019-04-03T07:48:19.120Z,166227.16
2019-04-03T07:50:47.447Z,166217.80
2019-04-03T07:53:15.653Z,166275.33
2019-04-03T07:55:44.410Z,166259.28
2019-04-03T07:58:13.059Z,166288.69
2019-04-03T08:00:41.411Z,166327.47
2019-04-03T08:03:09.695Z,166326.17
2019-04-03T08:05:37.850Z,166339.53
2019-04-03T08:08:06.005Z,166299.41
2019-04-03T08:10:37.133Z,166348.89
2019-04-03T08:13:06.487Z,166363.59
2019-04-03T08:15:35.287Z,166302.09
2019-04-03T08:18:03.437Z,166383.67
2019-04-03T08:20:31.608Z,166403.69
2019-04-03T08:22:59.840Z,166437.17
2019-04-03T08:25:28.048Z,166526.77
2019-04-03T08:27:56.667Z,166486.63
2019-04-03T08:30:24.887Z,166248.63
2019-04-03T08:32:53.136Z,166427.77
2019-04-03T08:35:23.386Z,166486.63
2019-04-03T08:37:51.370Z,166427.77
2019-04-03T08:40:20.427Z,166435.81
2019-04-03T08:42:49.937Z,166475.91
2019-04-03T08:45:20.956Z,166406.39
2019-04-03T08:47:48.234Z,166450.53
2019-04-03T08:50:18.132Z,166430.47
2019-04-03T08:52:46.445Z,166422.45
2019-04-03T08:55:15.107Z,166494.69
2019-04-03T08:57:45.960Z,166585.66
2019-04-03T09:00:14.531Z,166459.91
2019-04-03T09:02:43.828Z,166554.86
2019-04-03T09:05:14.490Z,166557.56
2019-04-03T09:07:43.024Z,166625.81
2019-04-03T09:10:12.211Z,166637.87
2019-04-03T09:12:40.500Z,166671.33
2019-04-03T09:15:10.529Z,166581.64
2019-04-03T09:17:39.105Z,166604.37
2019-04-03T09:20:08.824Z,166607.03
2019-04-03T09:22:37.141Z,166676.69
2019-04-03T09:25:05.977Z,166675.33
2019-04-03T09:27:34.131Z,166601.67
2019-04-03T09:30:02.943Z,166580.30
2019-04-03T09:32:31.213Z,166470.61
2019-04-03T09:35:01.424Z,166663.31
2019-04-03T09:37:29.736Z,166767.69
2019-04-03T09:40:01.011Z,166755.67
2019-04-03T09:42:32.966Z,166807.87
2019-04-03T09:45:02.173Z,166682.05
2019-04-03T09:47:33.074Z,166530.78
2019-04-03T09:50:00.711Z,166582.94
2019-04-03T09:52:39.530Z,166615.14
2019-04-03T09:55:00.307Z,166623.16
2019-04-03T09:57:31.348Z,166633.88
2019-04-03T09:59:59.301Z,166534.78
2019-04-03T10:02:27.676Z,166537.48
2019-04-03T10:04:58.621Z,166554.86
2019-04-03T10:07:26.573Z,166510.70
2019-04-03T10:09:54.936Z,166478.63
2019-04-03T10:12:23.447Z,166379.61
2019-04-03T10:14:52.071Z,166360.89
2019-04-03T10:17:20.971Z,166393.03
2019-04-03T10:19:49.297Z,166351.53
2019-04-03T10:22:17.651Z,166298.05
2019-04-03T10:24:45.953Z,166384.97
2019-04-03T10:27:14.118Z,166328.83
2019-04-03T10:29:42.453Z,166294.05
2019-04-03T10:32:10.768Z,166425.11
2019-04-03T10:34:38.960Z,166433.12
2019-04-03T10:37:07.211Z,166414.39
2019-04-03T10:39:35.585Z,166494.69
2019-04-03T10:42:03.891Z,166485.33
2019-04-03T10:44:32.207Z,166521.42
2019-04-03T10:47:00.436Z,166628.52
2019-04-03T10:49:30.028Z,166640.53
2019-04-03T10:51:58.669Z,166684.70
2019-04-03T10:54:27.287Z,166678.05
2019-04-03T10:56:55.903Z,166720.86
2019-04-03T10:59:24.207Z,166732.87
2019-04-03T11:01:52.385Z,166655.25
2019-04-03T11:04:20.691Z,166665.97
2019-04-03T11:06:48.869Z,166663.31
2019-04-03T11:09:17.177Z,166809.17
2019-04-03T11:11:45.553Z,166696.78
2019-04-03T11:14:14.208Z,166754.31
2019-04-03T11:16:45.993Z,166632.52
2019-04-03T11:19:12.896Z,166754.31
2019-04-03T11:21:43.240Z,166810.52
2019-04-03T11:24:11.313Z,166782.42
2019-04-03T11:26:39.728Z,166699.42
2019-04-03T11:29:09.921Z,166740.94
2019-04-03T11:31:41.480Z,166728.88
2019-04-03T11:34:08.293Z,166719.50
2019-04-03T11:36:36.494Z,166724.88
2019-04-03T11:39:13.546Z,166686.05
2019-04-03T11:41:38.511Z,166786.42
2019-04-03T11:44:06.678Z,166819.89
2019-04-03T11:46:35.450Z,166688.70
2019-04-03T11:49:04.522Z,166813.22
2019-04-03T11:51:34.264Z,166834.63
2019-04-03T11:54:02.721Z,166872.09
2019-04-03T11:56:31.342Z,166819.89
2019-04-03T11:58:59.904Z,166880.16
2019-04-03T12:01:28.814Z,166838.63
2019-04-03T12:03:57.217Z,166890.84
2019-04-03T12:06:25.475Z,166802.50
2019-04-03T12:08:53.736Z,166821.25
2019-04-03T12:11:22.687Z,166700.78
2019-04-03T12:13:51.410Z,166648.59
2019-04-03T12:16:20.040Z,166698.06
2019-04-03T12:18:48.456Z,166609.73
2019-04-03T12:21:18.868Z,166585.66
2019-04-03T12:23:46.968Z,166686.05
2019-04-03T12:26:15.476Z,166698.06
2019-04-03T12:28:43.853Z,166635.17
2019-04-03T12:31:12.802Z,166647.23
2019-04-03T12:33:52.744Z,166680.69
2019-04-03T12:36:13.413Z,166683.34
2019-04-03T12:38:41.287Z,166704.78
2019-04-03T12:41:10.656Z,166727.53
2019-04-03T12:43:39.590Z,166775.72
2019-04-03T12:46:11.897Z,166692.77
2019-04-03T12:48:40.500Z,166673.98
2019-04-03T12:51:09.043Z,166623.16
2019-04-03T12:53:37.838Z,166651.25
2019-04-03T12:56:06.548Z,166629.88
2019-04-03T12:58:36.395Z,166615.14
2019-04-03T13:01:05.211Z,166566.92
2019-04-03T13:03:36.716Z,166509.41
2019-04-03T13:06:04.988Z,166465.25
2019-04-03T13:08:33.536Z,166419.75
2019-04-03T13:11:02.241Z,166417.09
2019-04-03T13:13:30.460Z,166371.61
2019-04-03T13:15:58.888Z,166363.59
2019-04-03T13:18:27.220Z,166403.69
2019-04-03T13:20:55.399Z,166382.31
2019-04-03T13:23:23.558Z,166352.89
2019-04-03T13:25:53.193Z,166346.19
2019-04-03T13:28:21.840Z,166253.97
2019-04-03T13:30:49.999Z,166228.50
2019-04-03T13:33:18.140Z,166213.80
2019-04-03T13:35:48.357Z,166168.33
2019-04-03T13:38:17.483Z,166128.27
2019-04-03T13:40:46.061Z,166101.50
2019-04-03T13:43:15.462Z,166085.45
2019-04-03T13:45:43.879Z,166098.86
2019-04-03T13:48:13.443Z,166097.50
2019-04-03T13:50:44.979Z,166080.16
2019-04-03T13:53:12.740Z,166088.16
2019-04-03T13:55:41.239Z,166104.20
2019-04-03T13:58:10.347Z,166110.86
2019-04-03T14:00:38.800Z,166152.31
2019-04-03T14:03:07.035Z,166168.33
2019-04-03T14:05:35.216Z,166177.69
2019-04-03T14:08:06.368Z,166221.80
2019-04-03T14:10:33.979Z,166320.81
2019-04-03T14:13:02.237Z,166264.63
2019-04-03T14:15:32.469Z,166318.11
2019-04-03T14:18:00.652Z,166425.11
2019-04-03T14:20:28.863Z,166462.55
2019-04-03T14:22:57.038Z,166441.17
2019-04-03T14:25:28.099Z,166435.81
2019-04-03T14:27:55.660Z,166427.77
2019-04-03T14:30:24.615Z,166434.47
2019-04-03T14:32:54.672Z,166466.55
2019-04-03T14:35:45.143Z,166422.45
2019-04-03T14:37:53.376Z,166418.41
2019-04-03T14:40:21.705Z,166379.61
2019-04-03T14:42:49.902Z,166388.97
2019-04-03T14:45:25.733Z,166380.97
2019-04-03T14:47:54.914Z,166304.75
2019-04-03T14:50:24.129Z,166324.81
2019-04-03T14:52:52.511Z,166323.47
2019-04-03T14:55:22.751Z,166355.53
2019-04-03T14:57:53.764Z,166042.70
2019-04-03T15:00:28.553Z,165838.34
2019-04-03T15:02:51.178Z,165688.73
2019-04-03T15:05:19.715Z,165687.38
2019-04-03T15:07:50.613Z,165666.05
2019-04-03T15:10:18.678Z,165625.98
2019-04-03T15:12:47.235Z,165655.36
2019-04-03T15:15:15.797Z,165636.67
2019-04-03T15:17:44.382Z,165659.34
2019-04-03T15:20:16.910Z,165588.63
2019-04-03T15:22:44.133Z,165581.94
2019-04-03T15:25:12.911Z,165520.55
2019-04-03T15:27:42.640Z,165533.87
2019-04-03T15:30:12.265Z,165615.30
2019-04-03T15:32:41.166Z,165592.62
2019-04-03T15:35:10.477Z,165589.92
2019-04-03T15:37:41.929Z,165636.67
2019-04-03T15:40:10.159Z,165703.41
2019-04-03T15:42:40.567Z,165711.41
2019-04-03T15:45:11.681Z,165756.83
2019-04-03T15:47:45.013Z,165666.05
2019-04-03T15:50:12.055Z,165730.09
2019-04-03T15:52:43.140Z,165742.14
2019-04-03T15:55:11.763Z,165735.44
2019-04-03T15:57:40.991Z,165735.44
2019-04-03T16:00:12.460Z,165698.08
2019-04-03T16:02:44.495Z,165730.09
2019-04-03T16:05:11.980Z,165722.09
2019-04-03T16:07:41.614Z,165727.45
2019-04-03T16:10:10.932Z,165723.45
2019-04-03T16:12:42.932Z,165724.75
2019-04-03T16:15:09.836Z,165716.75
2019-04-03T16:17:39.130Z,165748.78
2019-04-03T16:20:08.632Z,165762.17
2019-04-03T16:22:38.455Z,165724.75
2019-04-03T16:25:08.173Z,165730.09
2019-04-03T16:27:36.491Z,165776.88
2019-04-03T16:30:07.192Z,165756.83
2019-04-03T16:32:37.681Z,165746.14
2019-04-03T16:35:07.670Z,165683.38
2019-04-03T16:37:36.362Z,165652.66
2019-04-03T16:40:06.192Z,165658.00
2019-04-03T16:42:35.014Z,165658.00
2019-04-03T16:45:08.156Z,165658.00
2019-04-03T16:47:34.572Z,165667.34
2019-04-03T16:50:05.723Z,165644.67
2019-04-03T16:52:36.247Z,165651.36
2019-04-03T16:55:04.481Z,165670.05
2019-04-03T16:57:32.660Z,165659.34
2019-04-03T17:00:00.847Z,165648.66
2019-04-03T17:02:29.957Z,165631.33
2019-04-03T17:04:58.488Z,165601.95
2019-04-03T17:07:26.757Z,165609.95
2019-04-03T17:09:54.940Z,165603.31
2019-04-03T17:12:23.278Z,165612.66
2019-04-03T17:14:52.955Z,165585.92
2019-04-03T17:17:22.651Z,165583.28
2019-04-03T17:19:51.782Z,165599.25
2019-04-03T17:22:20.492Z,165589.92
2019-04-03T17:24:51.868Z,165584.58
2019-04-03T17:27:19.086Z,165580.58
2019-04-03T17:29:48.107Z,165618.00
2019-04-03T17:32:19.575Z,165596.63
2019-04-03T17:34:47.778Z,165607.31
2019-04-03T17:37:19.006Z,165658.00
2019-04-03T17:39:46.196Z,165674.05
2019-04-03T17:42:15.266Z,165599.25
2019-04-03T17:44:44.757Z,165549.91
2019-04-03T17:47:13.502Z,165551.22
2019-04-03T17:49:41.798Z,165583.28
2019-04-03T17:52:10.165Z,165552.56
2019-04-03T17:54:39.123Z,165536.53
2019-04-03T17:57:07.529Z,165553.91
2019-04-03T17:59:35.668Z,165553.91
2019-04-03T18:02:04.095Z,165547.22
2019-04-03T18:04:32.456Z,165543.22
2019-04-03T18:07:00.670Z,165536.53
2019-04-03T18:09:28.927Z,165564.59
2019-04-03T18:11:58.031Z,165543.22
2019-04-03T18:14:27.109Z,165575.23
2019-04-03T18:16:55.350Z,165564.59
2019-04-03T18:19:23.546Z,165524.55
2019-04-03T18:22:51.006Z,165468.52
2019-04-03T18:25:20.165Z,165468.52
2019-04-03T18:27:48.398Z,165473.81
2019-04-03T18:30:17.875Z,165484.50
2019-04-03T18:32:46.689Z,165508.52
2019-04-03T18:35:15.218Z,165489.84
2019-04-03T18:37:43.435Z,165469.81
2019-04-03T18:40:14.242Z,165447.16
2019-04-03T18:42:41.932Z,165463.17
2019-04-03T18:45:24.638Z,165441.81
2019-04-03T18:47:46.520Z,165444.50
2019-04-03T18:50:14.763Z,165465.83
2019-04-03T18:52:43.429Z,165417.80
2019-04-03T18:55:14.628Z,165364.44
2019-04-03T18:57:42.348Z,165369.77
2019-04-03T19:00:11.037Z,165359.09
2019-04-03T19:02:39.293Z,165384.44
2019-04-03T19:05:09.919Z,165407.11
2019-04-03T19:07:38.238Z,165377.75
2019-04-03T19:10:07.823Z,165380.45
2019-04-03T19:12:36.318Z,165392.44
2019-04-03T19:15:07.070Z,165412.45
2019-04-03T19:17:35.384Z,165392.44
2019-04-03T19:20:10.808Z,165429.83
2019-04-03T19:22:35.079Z,165388.44
2019-04-03T19:25:03.651Z,165395.13
2019-04-03T19:27:33.013Z,165396.48
2019-04-03T19:30:01.738Z,165400.47
2019-04-03T19:32:30.344Z,165404.47
2019-04-03T19:34:58.593Z,165417.80
2019-04-03T19:37:26.898Z,165468.52
2019-04-03T19:39:55.102Z,165467.17
2019-04-03T19:42:24.177Z,165436.47
2019-04-03T19:44:52.321Z,165424.48
2019-04-03T19:47:20.497Z,165396.48
2019-04-03T19:49:48.693Z,165395.13
2019-04-03T19:52:16.925Z,165407.11
2019-04-03T19:54:45.056Z,165421.78
2019-04-03T19:57:13.351Z,165431.12
2019-04-03T19:59:41.511Z,165475.16
2019-04-03T20:02:10.251Z,165463.17
2019-04-03T20:04:38.691Z,165441.81
2019-04-03T20:07:07.393Z,165409.81
2019-04-03T20:09:35.535Z,165437.81
2019-04-03T20:12:06.816Z,165375.11
2019-04-03T20:14:33.902Z,165380.45
2019-04-03T20:17:02.167Z,165388.44
2019-04-03T20:19:30.410Z,165313.72
2019-04-03T20:21:58.618Z,165289.70
2019-04-03T20:24:26.887Z,165279.03
2019-04-03T20:26:55.080Z,165332.38
2019-04-03T20:29:23.294Z,165324.39
2019-04-03T20:31:51.473Z,165361.78
2019-04-03T20:34:19.624Z,165383.09
2019-04-03T20:36:50.948Z,165373.75
2019-04-03T20:39:18.381Z,165353.75
2019-04-03T20:41:46.601Z,165367.13
2019-04-03T20:44:16.703Z,165367.13
2019-04-03T20:46:44.860Z,165348.45
2019-04-03T20:49:13.145Z,165364.44
2019-04-03T20:51:51.430Z,165361.78
2019-04-03T20:54:21.261Z,165380.45
2019-04-03T20:56:57.817Z,165367.13
2019-04-03T20:59:19.972Z,165415.14
2019-04-03T21:01:48.221Z,165393.78
2019-04-03T21:04:16.492Z,165400.47
2019-04-03T21:06:44.964Z,165368.42
2019-04-03T21:09:13.217Z,165377.75
2019-04-03T21:11:41.342Z,165375.11
2019-04-03T21:14:11.285Z,165353.75
2019-04-03T21:16:41.135Z,165351.09
2019-04-03T21:19:09.395Z,165340.37
2019-04-03T21:21:37.540Z,165321.70
2019-04-03T21:24:07.532Z,165343.11
2019-04-03T21:26:38.273Z,165353.75
2019-04-03T21:29:07.091Z,165341.72
2019-04-03T21:31:35.396Z,165353.75
2019-04-03T21:34:03.659Z,165340.37
2019-04-03T21:36:31.787Z,165348.45
2019-04-03T21:38:59.948Z,165364.44
2019-04-03T21:41:28.185Z,165373.75
2019-04-03T21:43:59.729Z,165357.78
2019-04-03T21:46:26.635Z,165377.75
2019-04-03T21:48:57.044Z,165368.42
2019-04-03T21:51:25.200Z,165369.77
2019-04-03T21:53:55.773Z,165364.44
2019-04-03T21:56:23.497Z,165381.80
2019-04-03T21:58:51.800Z,165391.14
2019-04-03T22:01:25.209Z,165380.45
2019-04-03T22:03:53.658Z,165347.11
2019-04-03T22:06:21.869Z,165301.69
2019-04-03T22:08:51.591Z,165253.67
2019-04-03T22:11:20.030Z,165169.70
2019-04-03T22:13:49.752Z,165145.69
2019-04-03T22:16:19.475Z,165152.33
2019-04-03T22:18:47.890Z,165141.70
2019-04-03T22:21:16.117Z,165099.00
2019-04-03T22:23:44.761Z,165100.34
2019-04-03T22:26:12.874Z,165091.02
2019-04-03T22:28:41.321Z,165096.36
2019-04-03T22:31:09.448Z,165097.72
2019-04-03T22:33:37.659Z,165088.38
2019-04-03T22:36:05.789Z,165095.02
2019-04-03T22:38:36.971Z,165092.37
2019-04-03T22:41:04.162Z,165089.67
2019-04-03T22:43:32.330Z,165097.72
2019-04-03T22:46:00.706Z,165089.67
2019-04-03T22:48:29.239Z,165089.67
2019-04-03T22:50:57.609Z,165103.05
2019-04-03T22:53:25.766Z,165121.70
2019-04-03T22:55:53.938Z,165100.34
2019-04-03T22:58:22.202Z,165052.38
2019-04-03T23:00:50.562Z,165072.37
2019-04-03T23:03:18.675Z,165133.67
2019-04-03T23:05:47.950Z,165116.36
2019-04-03T23:08:17.016Z,165077.70
2019-04-03T23:10:45.274Z,165100.34
2019-04-03T23:13:13.425Z,165097.72
2019-04-03T23:15:41.624Z,165025.73
2019-04-03T23:18:09.770Z,164995.06
2019-04-03T23:20:38.072Z,165052.38
2019-04-03T23:23:06.376Z,165032.37
2019-04-03T23:25:34.678Z,164951.08
2019-04-03T23:28:03.577Z,164987.08
2019-04-03T23:30:31.903Z,164913.78
2019-04-03T23:33:00.069Z,164983.09
2019-04-03T23:35:28.407Z,164913.78
2019-04-03T23:37:56.658Z,164935.13
2019-04-03T23:40:25.232Z,164968.44
2019-04-03T23:42:53.400Z,164953.77
2019-04-03T23:45:22.987Z,164940.41
2019-04-03T23:47:51.219Z,164956.41
2019-04-03T23:50:20.005Z,165007.08
2019-04-03T23:52:49.527Z,164999.05
2019-04-03T23:55:17.737Z,165007.08
2019-04-03T23:57:46.906Z,164996.41
